sensor_id;sensor_type;location;lat;lon;timestamp;pressure;altitude;pressure_sealevel;temperature;humidity
61537;BME280;48695;53.480;-6.300;2023-04-19T00:01:57;102332.25;;;13.18;51.42
61537;BME280;48695;53.480;-6.300;2023-04-19T00:04:23;102332.25;;;13.15;50.92
61537;BME280;48695;53.480;-6.300;2023-04-19T00:06:49;102320.97;;;13.04;51.32
61537;BME280;48695;53.480;-6.300;2023-04-19T00:09:16;102310.56;;;12.95;51.41
61537;BME280;48695;53.480;-6.300;2023-04-19T00:11:41;102317.53;;;12.99;51.38
61537;BME280;48695;53.480;-6.300;2023-04-19T00:14:06;102319.25;;;13.00;50.73
61537;BME280;48695;53.480;-6.300;2023-04-19T00:16:32;102328.88;;;12.96;51.54
61537;BME280;48695;53.480;-6.300;2023-04-19T00:18:57;102324.56;;;12.94;51.64
61537;BME280;48695;53.480;-6.300;2023-04-19T00:21:22;102316.72;;;12.89;51.57
61537;BME280;48695;53.480;-6.300;2023-04-19T00:23:48;102322.81;;;12.87;51.77
61537;BME280;48695;53.480;-6.300;2023-04-19T00:26:13;102322.88;;;12.84;51.45
61537;BME280;48695;53.480;-6.300;2023-04-19T00:28:40;102317.63;;;12.81;51.79
61537;BME280;48695;53.480;-6.300;2023-04-19T00:31:05;102317.66;;;12.78;51.80
61537;BME280;48695;53.480;-6.300;2023-04-19T00:33:32;102309.81;;;12.73;51.45
61537;BME280;48695;53.480;-6.300;2023-04-19T00:35:57;102315.94;;;12.70;51.59
61537;BME280;48695;53.480;-6.300;2023-04-19T00:38:22;102315.09;;;12.68;51.34
61537;BME280;48695;53.480;-6.300;2023-04-19T00:40:48;102323.84;;;12.64;51.24
61537;BME280;48695;53.480;-6.300;2023-04-19T00:43:17;102321.22;;;12.61;51.29
61537;BME280;48695;53.480;-6.300;2023-04-19T00:45:44;102324.78;;;12.57;51.47
61537;BME280;48695;53.480;-6.300;2023-04-19T00:48:10;102324.78;;;12.54;51.11
61537;BME280;48695;53.480;-6.300;2023-04-19T00:50:35;102319.53;;;12.50;51.53
61537;BME280;48695;53.480;-6.300;2023-04-19T00:53:01;102315.19;;;12.45;51.84
61537;BME280;48695;53.480;-6.300;2023-04-19T00:55:26;102302.16;;;12.38;52.24
61537;BME280;48695;53.480;-6.300;2023-04-19T00:57:52;102298.69;;;12.33;51.89
61537;BME280;48695;53.480;-6.300;2023-04-19T01:00:18;102307.38;;;12.35;52.29
61537;BME280;48695;53.480;-6.300;2023-04-19T01:02:44;102297.81;;;12.32;52.29
61537;BME280;48695;53.480;-6.300;2023-04-19T01:05:09;102305.66;;;12.29;52.19
61537;BME280;48695;53.480;-6.300;2023-04-19T01:07:35;102299.56;;;12.26;51.94
61537;BME280;48695;53.480;-6.300;2023-04-19T01:10:01;102310.91;;;12.25;52.21
61537;BME280;48695;53.480;-6.300;2023-04-19T01:12:26;102304.81;;;12.21;52.07
61537;BME280;48695;53.480;-6.300;2023-04-19T01:14:51;102302.22;;;12.18;52.15
61537;BME280;48695;53.480;-6.300;2023-04-19T01:17:18;102297.00;;;12.15;52.67
61537;BME280;48695;53.480;-6.300;2023-04-19T01:19:43;102291.75;;;12.13;52.13
61537;BME280;48695;53.480;-6.300;2023-04-19T01:22:15;102295.25;;;12.06;51.69
61537;BME280;48695;53.480;-6.300;2023-04-19T01:24:41;102304.00;;;12.08;52.10
61537;BME280;48695;53.480;-6.300;2023-04-19T01:27:06;102284.84;;;11.97;52.56
61537;BME280;48695;53.480;-6.300;2023-04-19T01:29:32;102291.78;;;12.01;52.30
61537;BME280;48695;53.480;-6.300;2023-04-19T01:31:57;102293.56;;;11.99;52.40
61537;BME280;48695;53.480;-6.300;2023-04-19T01:34:22;102287.44;;;11.95;52.62
61537;BME280;48695;53.480;-6.300;2023-04-19T01:36:48;102290.97;;;11.87;52.62
61537;BME280;48695;53.480;-6.300;2023-04-19T01:39:13;102287.47;;;11.89;52.28
61537;BME280;48695;53.480;-6.300;2023-04-19T01:41:39;102287.50;;;11.86;52.62
61537;BME280;48695;53.480;-6.300;2023-04-19T01:44:04;102301.44;;;11.84;52.79
61537;BME280;48695;53.480;-6.300;2023-04-19T01:46:30;102300.56;;;11.79;52.86
61537;BME280;48695;53.480;-6.300;2023-04-19T01:48:55;102298.81;;;11.78;53.10
61537;BME280;48695;53.480;-6.300;2023-04-19T01:51:20;102299.72;;;11.72;52.91
61537;BME280;48695;53.480;-6.300;2023-04-19T01:53:46;102304.06;;;11.72;52.58
61537;BME280;48695;53.480;-6.300;2023-04-19T01:56:17;102297.09;;;11.67;53.20
61537;BME280;48695;53.480;-6.300;2023-04-19T01:58:42;102300.59;;;11.66;53.08
61537;BME280;48695;53.480;-6.300;2023-04-19T02:01:08;102300.59;;;11.63;53.07
61537;BME280;48695;53.480;-6.300;2023-04-19T02:03:37;102298.84;;;11.62;53.19
61537;BME280;48695;53.480;-6.300;2023-04-19T02:06:02;102295.34;;;11.60;53.33
61537;BME280;48695;53.480;-6.300;2023-04-19T02:08:27;102291.88;;;11.58;53.34
61537;BME280;48695;53.480;-6.300;2023-04-19T02:10:53;102290.16;;;11.56;53.58
61537;BME280;48695;53.480;-6.300;2023-04-19T02:13:18;102283.16;;;11.53;53.43
61537;BME280;48695;53.480;-6.300;2023-04-19T02:15:44;102287.53;;;11.53;53.43
61537;BME280;48695;53.480;-6.300;2023-04-19T02:18:10;102281.41;;;11.49;53.37
61537;BME280;48695;53.480;-6.300;2023-04-19T02:20:35;102275.31;;;11.49;53.49
61537;BME280;48695;53.480;-6.300;2023-04-19T02:23:01;102265.72;;;11.40;53.46
61537;BME280;48695;53.480;-6.300;2023-04-19T02:25:26;102277.03;;;11.45;53.68
61537;BME280;48695;53.480;-6.300;2023-04-19T02:27:52;102263.13;;;11.35;53.81
61537;BME280;48695;53.480;-6.300;2023-04-19T02:30:18;102267.47;;;11.41;53.74
61537;BME280;48695;53.480;-6.300;2023-04-19T02:32:43;102277.06;;;11.39;53.62
61537;BME280;48695;53.480;-6.300;2023-04-19T02:35:09;102272.72;;;11.38;53.92
61537;BME280;48695;53.480;-6.300;2023-04-19T02:37:34;102272.69;;;11.35;54.00
61537;BME280;48695;53.480;-6.300;2023-04-19T02:39:59;102272.69;;;11.35;54.33
61537;BME280;48695;53.480;-6.300;2023-04-19T02:42:25;102273.59;;;11.32;54.66
61537;BME280;48695;53.480;-6.300;2023-04-19T02:44:50;102266.63;;;11.31;54.30
61537;BME280;48695;53.480;-6.300;2023-04-19T02:47:16;102257.00;;;11.29;54.55
61537;BME280;48695;53.480;-6.300;2023-04-19T02:49:41;102251.78;;;11.29;54.42
61537;BME280;48695;53.480;-6.300;2023-04-19T02:52:07;102232.63;;;11.22;54.28
61537;BME280;48695;53.480;-6.300;2023-04-19T02:54:33;102250.03;;;11.25;54.52
61537;BME280;48695;53.480;-6.300;2023-04-19T02:56:58;102248.28;;;11.25;54.18
61537;BME280;48695;53.480;-6.300;2023-04-19T02:59:23;102243.94;;;11.24;54.02
61537;BME280;48695;53.480;-6.300;2023-04-19T03:01:49;102250.94;;;11.22;54.37
61537;BME280;48695;53.480;-6.300;2023-04-19T03:04:14;102250.94;;;11.22;54.15
61537;BME280;48695;53.480;-6.300;2023-04-19T03:06:41;102249.19;;;11.18;54.31
61537;BME280;48695;53.480;-6.300;2023-04-19T03:09:08;102232.63;;;11.17;54.10
61537;BME280;48695;53.480;-6.300;2023-04-19T03:11:34;102234.38;;;11.15;54.25
61537;BME280;48695;53.480;-6.300;2023-04-19T03:14:01;102221.28;;;11.08;54.27
61537;BME280;48695;53.480;-6.300;2023-04-19T03:16:26;102218.69;;;11.08;54.33
61537;BME280;48695;53.480;-6.300;2023-04-19T03:18:54;102224.78;;;11.10;52.14
61537;BME280;48695;53.480;-6.300;2023-04-19T03:21:19;102221.28;;;11.05;53.95
61537;BME280;48695;53.480;-6.300;2023-04-19T03:23:45;102227.41;;;11.02;54.56
61537;BME280;48695;53.480;-6.300;2023-04-19T03:26:10;102220.44;;;10.98;54.43
61537;BME280;48695;53.480;-6.300;2023-04-19T03:28:35;102216.97;;;10.96;54.89
61537;BME280;48695;53.480;-6.300;2023-04-19T03:31:01;102222.16;;;10.93;54.95
61537;BME280;48695;53.480;-6.300;2023-04-19T03:33:26;102230.88;;;10.92;54.46
61537;BME280;48695;53.480;-6.300;2023-04-19T03:35:52;102229.13;;;10.88;54.79
61537;BME280;48695;53.480;-6.300;2023-04-19T03:38:17;102219.56;;;10.85;55.10
61537;BME280;48695;53.480;-6.300;2023-04-19T03:40:43;102219.53;;;10.84;55.21
61537;BME280;48695;53.480;-6.300;2023-04-19T03:43:08;102206.47;;;10.72;55.33
61537;BME280;48695;53.480;-6.300;2023-04-19T03:45:33;102231.75;;;10.80;55.25
61537;BME280;48695;53.480;-6.300;2023-04-19T03:47:59;102183.81;;;10.51;55.30
61537;BME280;48695;53.480;-6.300;2023-04-19T03:50:24;102225.66;;;10.77;55.43
61537;BME280;48695;53.480;-6.300;2023-04-19T03:52:50;102214.34;;;10.75;55.64
61537;BME280;48695;53.480;-6.300;2023-04-19T03:55:15;102215.19;;;10.74;56.23
61537;BME280;48695;53.480;-6.300;2023-04-19T03:57:41;102226.50;;;10.73;55.96
61537;BME280;48695;53.480;-6.300;2023-04-19T04:00:07;102214.31;;;10.67;55.85
61537;BME280;48695;53.480;-6.300;2023-04-19T04:02:33;102219.56;;;10.70;56.31
61537;BME280;48695;53.480;-6.300;2023-04-19T04:04:58;102229.13;;;10.70;56.88
61537;BME280;48695;53.480;-6.300;2023-04-19T04:07:23;102223.03;;;10.68;56.90
61537;BME280;48695;53.480;-6.300;2023-04-19T04:09:50;102223.91;;;10.67;57.10
61537;BME280;48695;53.480;-6.300;2023-04-19T04:12:15;102232.63;;;10.65;56.88
61537;BME280;48695;53.480;-6.300;2023-04-19T04:14:41;102230.00;;;10.65;56.97
61537;BME280;48695;53.480;-6.300;2023-04-19T04:17:06;102211.69;;;10.62;57.04
61537;BME280;48695;53.480;-6.300;2023-04-19T04:19:31;102193.41;;;10.50;57.19
61537;BME280;48695;53.480;-6.300;2023-04-19T04:21:57;102209.09;;;10.61;57.28
61537;BME280;48695;53.480;-6.300;2023-04-19T04:24:22;102214.31;;;10.59;57.06
61537;BME280;48695;53.480;-6.300;2023-04-19T04:26:48;102224.78;;;10.59;57.16
61537;BME280;48695;53.480;-6.300;2023-04-19T04:29:16;102241.28;;;10.58;57.20
61537;BME280;48695;53.480;-6.300;2023-04-19T04:31:42;102243.91;;;10.58;57.63
61537;BME280;48695;53.480;-6.300;2023-04-19T04:34:07;102247.38;;;10.59;57.45
61537;BME280;48695;53.480;-6.300;2023-04-19T04:36:33;102253.50;;;10.59;57.13
61537;BME280;48695;53.480;-6.300;2023-04-19T04:39:01;102256.97;;;10.61;57.24
61537;BME280;48695;53.480;-6.300;2023-04-19T04:41:26;102248.28;;;10.61;57.53
61537;BME280;48695;53.480;-6.300;2023-04-19T04:43:52;102232.59;;;10.50;57.76
61537;BME280;48695;53.480;-6.300;2023-04-19T04:46:17;102250.03;;;10.67;57.51
61537;BME280;48695;53.480;-6.300;2023-04-19T04:48:43;102249.16;;;10.68;57.65
61537;BME280;48695;53.480;-6.300;2023-04-19T04:51:08;102246.56;;;10.71;57.46
61537;BME280;48695;53.480;-6.300;2023-04-19T04:53:34;102243.94;;;10.72;57.77
61537;BME280;48695;53.480;-6.300;2023-04-19T04:55:59;102216.91;;;10.62;57.76
61537;BME280;48695;53.480;-6.300;2023-04-19T04:58:24;102246.53;;;10.78;57.97
61537;BME280;48695;53.480;-6.300;2023-04-19T05:00:50;102238.72;;;10.80;57.75
61537;BME280;48695;53.480;-6.300;2023-04-19T05:03:15;102243.94;;;10.84;57.51
61537;BME280;48695;53.480;-6.300;2023-04-19T05:05:41;102236.13;;;10.86;57.57
61537;BME280;48695;53.480;-6.300;2023-04-19T05:08:07;102245.69;;;10.88;57.66
61537;BME280;48695;53.480;-6.300;2023-04-19T05:10:32;102245.72;;;10.90;57.71
61537;BME280;48695;53.480;-6.300;2023-04-19T05:13:00;102251.78;;;10.94;57.68
61537;BME280;48695;53.480;-6.300;2023-04-19T05:15:25;102243.06;;;10.93;57.96
61537;BME280;48695;53.480;-6.300;2023-04-19T05:17:50;102239.59;;;10.94;57.73
61537;BME280;48695;53.480;-6.300;2023-04-19T05:20:16;102236.13;;;10.97;57.35
61537;BME280;48695;53.480;-6.300;2023-04-19T05:22:41;102234.38;;;10.97;57.38
61537;BME280;48695;53.480;-6.300;2023-04-19T05:25:08;102229.16;;;11.00;56.65
61537;BME280;48695;53.480;-6.300;2023-04-19T05:27:34;102227.38;;;10.99;57.15
61537;BME280;48695;53.480;-6.300;2023-04-19T05:29:59;102230.91;;;11.01;57.20
61537;BME280;48695;53.480;-6.300;2023-04-19T05:32:25;102234.38;;;11.00;57.00
61537;BME280;48695;53.480;-6.300;2023-04-19T05:34:51;102226.53;;;11.00;57.47
61537;BME280;48695;53.480;-6.300;2023-04-19T05:37:17;102207.38;;;10.90;56.84
61537;BME280;48695;53.480;-6.300;2023-04-19T05:39:42;102235.25;;;11.01;57.30
61537;BME280;48695;53.480;-6.300;2023-04-19T05:42:07;102239.63;;;11.00;57.28
61537;BME280;48695;53.480;-6.300;2023-04-19T05:44:33;102248.31;;;10.99;57.07
61537;BME280;48695;53.480;-6.300;2023-04-19T05:46:58;102244.84;;;11.00;57.62
61537;BME280;48695;53.480;-6.300;2023-04-19T05:49:24;102252.69;;;11.02;57.44
61537;BME280;48695;53.480;-6.300;2023-04-19T05:51:49;102256.16;;;11.04;57.16
61537;BME280;48695;53.480;-6.300;2023-04-19T05:54:15;102265.75;;;11.06;57.63
61537;BME280;48695;53.480;-6.300;2023-04-19T05:56:41;102269.22;;;11.08;57.06
61537;BME280;48695;53.480;-6.300;2023-04-19T05:59:06;102264.88;;;11.09;57.58
61537;BME280;48695;53.480;-6.300;2023-04-19T06:01:32;102268.34;;;11.12;57.01
61537;BME280;48695;53.480;-6.300;2023-04-19T06:03:57;102264.00;;;11.16;57.12
61537;BME280;48695;53.480;-6.300;2023-04-19T06:06:23;102264.00;;;11.17;57.27
61537;BME280;48695;53.480;-6.300;2023-04-19T06:08:49;102261.38;;;11.17;57.12
61537;BME280;48695;53.480;-6.300;2023-04-19T06:11:14;102260.53;;;11.22;57.41
61537;BME280;48695;53.480;-6.300;2023-04-19T06:13:39;102248.31;;;11.24;57.10
61537;BME280;48695;53.480;-6.300;2023-04-19T06:16:05;102254.41;;;11.26;56.75
61537;BME280;48695;53.480;-6.300;2023-04-19T06:18:32;102250.06;;;11.28;56.79
61537;BME280;48695;53.480;-6.300;2023-04-19T06:20:57;102257.00;;;11.29;56.79
61537;BME280;48695;53.480;-6.300;2023-04-19T06:23:22;102237.00;;;11.26;57.05
61537;BME280;48695;53.480;-6.300;2023-04-19T06:25:49;102258.75;;;11.33;56.52
61537;BME280;48695;53.480;-6.300;2023-04-19T06:28:15;102252.66;;;11.32;56.92
61537;BME280;48695;53.480;-6.300;2023-04-19T06:30:40;102252.66;;;11.37;56.41
61537;BME280;48695;53.480;-6.300;2023-04-19T06:33:05;102250.94;;;11.40;56.64
61537;BME280;48695;53.480;-6.300;2023-04-19T06:35:31;102250.03;;;11.40;56.91
61537;BME280;48695;53.480;-6.300;2023-04-19T06:37:57;102248.28;;;11.45;56.67
61537;BME280;48695;53.480;-6.300;2023-04-19T06:40:23;102243.06;;;11.42;57.01
61537;BME280;48695;53.480;-6.300;2023-04-19T06:42:49;102248.28;;;11.48;56.73
61537;BME280;48695;53.480;-6.300;2023-04-19T06:45:14;102250.03;;;11.52;56.58
61537;BME280;48695;53.480;-6.300;2023-04-19T06:47:40;102253.50;;;11.54;56.94
61537;BME280;48695;53.480;-6.300;2023-04-19T06:50:06;102250.00;;;11.55;56.44
61537;BME280;48695;53.480;-6.300;2023-04-19T06:52:31;102245.63;;;11.59;56.70
61537;BME280;48695;53.480;-6.300;2023-04-19T06:54:57;102245.66;;;11.62;56.39
61537;BME280;48695;53.480;-6.300;2023-04-19T06:57:22;102249.97;;;11.64;56.26
61537;BME280;48695;53.480;-6.300;2023-04-19T06:59:48;102252.59;;;11.67;56.27
61537;BME280;48695;53.480;-6.300;2023-04-19T07:02:13;102248.22;;;11.69;56.54
61537;BME280;48695;53.480;-6.300;2023-04-19T07:04:38;102250.84;;;11.73;56.27
61537;BME280;48695;53.480;-6.300;2023-04-19T07:07:04;102253.44;;;11.76;55.96
61537;BME280;48695;53.480;-6.300;2023-04-19T07:09:29;102247.31;;;11.80;55.91
61537;BME280;48695;53.480;-6.300;2023-04-19T07:11:55;102249.97;;;11.81;56.01
61537;BME280;48695;53.480;-6.300;2023-04-19T07:14:21;102223.78;;;11.70;56.46
61537;BME280;48695;53.480;-6.300;2023-04-19T07:16:48;102244.72;;;11.86;56.39
61537;BME280;48695;53.480;-6.300;2023-04-19T07:19:14;102243.84;;;11.90;55.98
61537;BME280;48695;53.480;-6.300;2023-04-19T07:21:39;102238.59;;;11.93;55.82
61537;BME280;48695;53.480;-6.300;2023-04-19T07:24:06;102240.34;;;11.94;56.21
61537;BME280;48695;53.480;-6.300;2023-04-19T07:26:32;102238.56;;;11.96;55.89
61537;BME280;48695;53.480;-6.300;2023-04-19T07:28:58;102228.13;;;11.93;56.15
61537;BME280;48695;53.480;-6.300;2023-04-19T07:31:24;102239.41;;;12.01;56.10
61537;BME280;48695;53.480;-6.300;2023-04-19T07:33:50;102228.94;;;12.01;55.90
61537;BME280;48695;53.480;-6.300;2023-04-19T07:36:16;102218.53;;;11.92;56.36
61537;BME280;48695;53.480;-6.300;2023-04-19T07:38:41;102231.56;;;12.06;56.12
61537;BME280;48695;53.480;-6.300;2023-04-19T07:41:07;102215.00;;;11.99;56.16
61537;BME280;48695;53.480;-6.300;2023-04-19T07:43:33;102232.41;;;12.12;56.19
61537;BME280;48695;53.480;-6.300;2023-04-19T07:45:58;102241.97;;;12.16;56.34
61537;BME280;48695;53.480;-6.300;2023-04-19T07:48:24;102248.09;;;12.22;55.44
61537;BME280;48695;53.480;-6.300;2023-04-19T07:50:49;102253.31;;;12.25;55.62
61537;BME280;48695;53.480;-6.300;2023-04-19T07:53:15;102244.56;;;12.27;55.68
61537;BME280;48695;53.480;-6.300;2023-04-19T07:55:40;102250.66;;;12.29;55.73
61537;BME280;48695;53.480;-6.300;2023-04-19T07:58:06;102238.41;;;12.31;55.60
61537;BME280;48695;53.480;-6.300;2023-04-19T08:00:31;102249.75;;;12.35;55.76
61537;BME280;48695;53.480;-6.300;2023-04-19T08:03:00;102236.66;;;12.35;55.54
61537;BME280;48695;53.480;-6.300;2023-04-19T08:05:26;102235.75;;;12.39;55.66
61537;BME280;48695;53.480;-6.300;2023-04-19T08:07:51;102242.75;;;12.40;55.97
61537;BME280;48695;53.480;-6.300;2023-04-19T08:10:18;102227.94;;;12.34;55.30
61537;BME280;48695;53.480;-6.300;2023-04-19T08:12:43;102234.84;;;12.44;55.79
61537;BME280;48695;53.480;-6.300;2023-04-19T08:15:09;102240.94;;;12.50;55.86
61537;BME280;48695;53.480;-6.300;2023-04-19T08:17:35;102240.91;;;12.51;56.05
61537;BME280;48695;53.480;-6.300;2023-04-19T08:20:00;102240.91;;;12.57;55.30
61537;BME280;48695;53.480;-6.300;2023-04-19T08:22:25;102237.38;;;12.61;55.22
61537;BME280;48695;53.480;-6.300;2023-04-19T08:24:51;102240.88;;;12.63;55.51
61537;BME280;48695;53.480;-6.300;2023-04-19T08:27:17;102244.31;;;12.67;55.83
61537;BME280;48695;53.480;-6.300;2023-04-19T08:29:43;102258.28;;;12.70;55.60
61537;BME280;48695;53.480;-6.300;2023-04-19T08:32:10;102232.09;;;12.67;55.31
61537;BME280;48695;53.480;-6.300;2023-04-19T08:34:37;102247.75;;;12.77;55.21
61537;BME280;48695;53.480;-6.300;2023-04-19T08:37:02;102256.50;;;12.79;55.39
61537;BME280;48695;53.480;-6.300;2023-04-19T08:39:29;102239.88;;;12.78;55.73
61537;BME280;48695;53.480;-6.300;2023-04-19T08:41:55;102247.72;;;12.83;55.87
61537;BME280;48695;53.480;-6.300;2023-04-19T08:44:24;102227.69;;;12.72;55.82
61537;BME280;48695;53.480;-6.300;2023-04-19T08:46:50;102256.38;;;12.91;55.36
61537;BME280;48695;53.480;-6.300;2023-04-19T08:49:16;102238.06;;;12.86;55.47
61537;BME280;48695;53.480;-6.300;2023-04-19T08:51:49;102244.09;;;12.99;55.52
61537;BME280;48695;53.480;-6.300;2023-04-19T08:54:15;102242.34;;;12.99;55.26
61537;BME280;48695;53.480;-6.300;2023-04-19T08:56:42;102244.09;;;12.99;55.24
61537;BME280;48695;53.480;-6.300;2023-04-19T08:59:07;102251.91;;;13.02;55.83
61537;BME280;48695;53.480;-6.300;2023-04-19T09:01:33;102244.94;;;13.04;55.74
61537;BME280;48695;53.480;-6.300;2023-04-19T09:03:58;102255.41;;;13.04;55.46
61537;BME280;48695;53.480;-6.300;2023-04-19T09:06:24;102252.75;;;13.07;55.99
61537;BME280;48695;53.480;-6.300;2023-04-19T09:08:51;102246.63;;;13.10;55.59
61537;BME280;48695;53.480;-6.300;2023-04-19T09:11:35;102225.69;;;13.02;54.86
61537;BME280;48695;53.480;-6.300;2023-04-19T09:14:09;102249.22;;;13.14;54.86
61537;BME280;48695;53.480;-6.300;2023-04-19T09:16:35;102243.06;;;13.15;55.40
61537;BME280;48695;53.480;-6.300;2023-04-19T09:19:04;102244.81;;;13.16;55.82
61537;BME280;48695;53.480;-6.300;2023-04-19T09:21:31;102256.19;;;13.18;55.49
61537;BME280;48695;53.480;-6.300;2023-04-19T09:23:57;102234.34;;;13.12;55.82
61537;BME280;48695;53.480;-6.300;2023-04-19T09:26:22;102256.16;;;13.21;55.57
61537;BME280;48695;53.480;-6.300;2023-04-19T09:28:58;102251.75;;;13.27;55.20
61537;BME280;48695;53.480;-6.300;2023-04-19T09:31:27;102256.16;;;13.24;55.87
61537;BME280;48695;53.480;-6.300;2023-04-19T09:33:53;102250.84;;;13.28;55.59
61537;BME280;48695;53.480;-6.300;2023-04-19T09:36:29;102251.69;;;13.33;55.57
61537;BME280;48695;53.480;-6.300;2023-04-19T09:38:55;102246.47;;;13.31;56.38
61537;BME280;48695;53.480;-6.300;2023-04-19T09:41:21;102239.47;;;13.30;56.11
61537;BME280;48695;53.480;-6.300;2023-04-19T09:43:47;102252.50;;;13.41;56.01
61537;BME280;48695;53.480;-6.300;2023-04-19T09:46:34;102255.91;;;13.50;54.93
61537;BME280;48695;53.480;-6.300;2023-04-19T09:49:23;102247.97;;;13.55;55.29
61537;BME280;48695;53.480;-6.300;2023-04-19T09:51:53;102253.22;;;13.57;55.11
61537;BME280;48695;53.480;-6.300;2023-04-19T09:54:21;102256.69;;;13.57;55.58
61537;BME280;48695;53.480;-6.300;2023-04-19T09:56:47;102245.28;;;13.64;54.52
61537;BME280;48695;53.480;-6.300;2023-04-19T09:59:13;102249.66;;;13.64;55.96
61537;BME280;48695;53.480;-6.300;2023-04-19T10:01:45;102243.47;;;13.69;55.58
61537;BME280;48695;53.480;-6.300;2023-04-19T10:04:13;102238.22;;;13.69;55.38
61537;BME280;48695;53.480;-6.300;2023-04-19T10:06:49;102241.72;;;13.70;55.36
61537;BME280;48695;53.480;-6.300;2023-04-19T10:09:17;102244.28;;;13.74;55.49
61537;BME280;48695;53.480;-6.300;2023-04-19T10:11:46;102242.47;;;13.80;55.37
61537;BME280;48695;53.480;-6.300;2023-04-19T10:14:13;102243.34;;;13.79;55.60
61537;BME280;48695;53.480;-6.300;2023-04-19T10:16:39;102243.31;;;13.82;55.69
61537;BME280;48695;53.480;-6.300;2023-04-19T10:19:08;102241.50;;;13.87;55.47
61537;BME280;48695;53.480;-6.300;2023-04-19T10:21:35;102251.13;;;13.89;55.58
61537;BME280;48695;53.480;-6.300;2023-04-19T10:24:01;102226.69;;;13.81;55.52
61537;BME280;48695;53.480;-6.300;2023-04-19T10:26:27;102243.22;;;13.91;55.58
61537;BME280;48695;53.480;-6.300;2023-04-19T10:28:54;102237.88;;;13.97;55.94
61537;BME280;48695;53.480;-6.300;2023-04-19T10:31:20;102232.69;;;13.94;55.51
61537;BME280;48695;53.480;-6.300;2023-04-19T10:33:48;102243.06;;;14.03;55.49
61537;BME280;48695;53.480;-6.300;2023-04-19T10:36:14;102235.97;;;14.08;55.45
61537;BME280;48695;53.480;-6.300;2023-04-19T10:38:45;102240.28;;;14.14;55.35
61537;BME280;48695;53.480;-6.300;2023-04-19T10:41:17;102232.53;;;14.06;55.33
61537;BME280;48695;53.480;-6.300;2023-04-19T10:48:57;102228.72;;;14.28;55.11
61537;BME280;48695;53.480;-6.300;2023-04-19T10:51:26;102230.50;;;14.26;55.39
61537;BME280;48695;53.480;-6.300;2023-04-19T10:56:56;102236.56;;;14.32;55.11
61537;BME280;48695;53.480;-6.300;2023-04-19T10:59:11;102231.28;;;14.33;54.79
61537;BME280;48695;53.480;-6.300;2023-04-19T11:01:44;102237.41;;;14.34;54.78
61537;BME280;48695;53.480;-6.300;2023-04-19T11:12:03;102230.47;;;14.30;54.34
61537;BME280;48695;53.480;-6.300;2023-04-19T11:14:32;102240.13;;;14.27;54.86
61537;BME280;48695;53.480;-6.300;2023-04-19T11:16:59;102241.91;;;14.24;54.70
61537;BME280;48695;53.480;-6.300;2023-04-19T11:19:25;102227.94;;;14.22;54.71
61537;BME280;48695;53.480;-6.300;2023-04-19T11:21:50;102229.72;;;14.18;54.90
61537;BME280;48695;53.480;-6.300;2023-04-19T11:24:16;102230.63;;;14.17;54.92
61537;BME280;48695;53.480;-6.300;2023-04-19T11:26:44;102244.66;;;14.16;55.22
61537;BME280;48695;53.480;-6.300;2023-04-19T11:29:11;102221.16;;;14.06;55.04
61537;BME280;48695;53.480;-6.300;2023-04-19T11:31:36;102228.91;;;14.13;55.20
61537;BME280;48695;53.480;-6.300;2023-04-19T11:34:02;102226.28;;;14.13;55.56
61537;BME280;48695;53.480;-6.300;2023-04-19T11:36:28;102225.41;;;14.14;55.17
61537;BME280;48695;53.480;-6.300;2023-04-19T11:38:53;102221.03;;;14.15;55.79
61537;BME280;48695;53.480;-6.300;2023-04-19T11:41:19;102202.69;;;14.10;55.42
61537;BME280;48695;53.480;-6.300;2023-04-19T11:43:45;102218.28;;;14.22;55.29
61537;BME280;48695;53.480;-6.300;2023-04-19T11:46:12;102218.25;;;14.25;55.46
61537;BME280;48695;53.480;-6.300;2023-04-19T11:48:57;102217.25;;;14.34;54.90
61537;BME280;48695;53.480;-6.300;2023-04-19T11:51:23;102211.19;;;14.31;55.60
61537;BME280;48695;53.480;-6.300;2023-04-19T11:53:49;102218.03;;;14.39;55.81
61537;BME280;48695;53.480;-6.300;2023-04-19T11:56:14;102219.72;;;14.46;55.44
61537;BME280;48695;53.480;-6.300;2023-04-19T11:58:45;102215.22;;;14.54;54.53
61537;BME280;48695;53.480;-6.300;2023-04-19T12:01:17;102210.88;;;14.55;54.68
61537;BME280;48695;53.480;-6.300;2023-04-19T12:03:51;102215.09;;;14.65;54.45
61537;BME280;48695;53.480;-6.300;2023-04-19T12:06:29;102193.25;;;14.60;54.27
61537;BME280;48695;53.480;-6.300;2023-04-19T12:08:58;102214.06;;;14.75;54.79
61537;BME280;48695;53.480;-6.300;2023-04-19T12:14:09;102211.09;;;14.94;54.69
61537;BME280;48695;53.480;-6.300;2023-04-19T12:16:34;102207.53;;;14.98;54.13
61537;BME280;48695;53.480;-6.300;2023-04-19T12:19:10;102205.63;;;15.08;53.72
61537;BME280;48695;53.480;-6.300;2023-04-19T12:21:37;102202.84;;;15.15;53.95
61537;BME280;48695;53.480;-6.300;2023-04-19T12:24:03;102195.84;;;15.16;54.50
61537;BME280;48695;53.480;-6.300;2023-04-19T12:26:28;102199.22;;;15.22;54.60
61537;BME280;48695;53.480;-6.300;2023-04-19T12:28:54;102194.63;;;15.34;54.46
61537;BME280;48695;53.480;-6.300;2023-04-19T12:31:20;102194.31;;;15.49;54.46
61537;BME280;48695;53.480;-6.300;2023-04-19T12:33:46;102195.69;;;15.71;54.89
61537;BME280;48695;53.480;-6.300;2023-04-19T12:36:12;102173.13;;;16.00;54.76
61537;BME280;48695;53.480;-6.300;2023-04-19T12:38:37;102182.81;;;16.37;54.48
61537;BME280;48695;53.480;-6.300;2023-04-19T12:41:03;102185.41;;;16.77;53.69
61537;BME280;48695;53.480;-6.300;2023-04-19T12:43:28;102165.78;;;17.21;53.21
61537;BME280;48695;53.480;-6.300;2023-04-19T12:45:56;102175.81;;;17.72;52.61
61537;BME280;48695;53.480;-6.300;2023-04-19T12:48:22;102156.09;;;18.13;51.62
61537;BME280;48695;53.480;-6.300;2023-04-19T12:50:47;102162.31;;;18.67;50.56
61537;BME280;48695;53.480;-6.300;2023-04-19T12:53:13;102164.34;;;19.12;50.51
61537;BME280;48695;53.480;-6.300;2023-04-19T12:55:38;102163.63;;;19.57;49.41